Greenville Airport (GRE)
Greenville, IL
Field Elevation: 540
Lat: 38°50.00N  Long: 89°22.00W
CTAF/Unicom Freq: 123.0500
   
     For Weather-by-Phone, call (618) 664-1939
Weather Advisories
2019-06-25   00:27 Z
Altimeter 29.80" Hg
Wind 270° @ 12 KT
Gusts 18 KT
Visibility 10 SM
Temperature 25° C (77° F)
Dewpoint 15° C (59° F)
Relative Humidity 54%
Density Altitude 1,900 feet
Condensation Altitude 5,500 feet
Wind and Runways
Indicated Runway = 27
Headwind = 12 kt
Crosswind = 0 kt
History
 
 
 
More Info
 
NOAA Forecast
 
Airport IQ 5010
(FLV) Sherman Airfield
(VLA) Vandalia
 
about Belfort Instrument
 
FAA Disclaimer: The data displayed is for advisory purposes only and is not to be used for flight planning or operations. For official data, please call (618) 664-1939 to hear the current automated AWOS voice message.
  METAR GRE 250027Z AUTO 27012G18KT 10 SM 25/15 A2980